sensor_id;sensor_type;location;lat;lon;timestamp;P1;durP1;ratioP1;P2;durP2;ratioP2
2213;SDS011;1113;42.018;23.986;2022-09-20T00:01:40;7.20;;;6.50;;
2213;SDS011;1113;42.018;23.986;2022-09-20T00:04:06;7.53;;;6.57;;
2213;SDS011;1113;42.018;23.986;2022-09-20T00:06:34;10.03;;;9.03;;
2213;SDS011;1113;42.018;23.986;2022-09-20T00:09:01;17.60;;;14.77;;
2213;SDS011;1113;42.018;23.986;2022-09-20T00:11:31;15.73;;;9.20;;
2213;SDS011;1113;42.018;23.986;2022-09-20T00:13:59;9.90;;;8.90;;
2213;SDS011;1113;42.018;23.986;2022-09-20T00:16:28;9.50;;;8.60;;
2213;SDS011;1113;42.018;23.986;2022-09-20T00:18:57;10.53;;;9.03;;
2213;SDS011;1113;42.018;23.986;2022-09-20T00:21:25;9.70;;;8.70;;
2213;SDS011;1113;42.018;23.986;2022-09-20T00:23:53;7.17;;;6.20;;
2213;SDS011;1113;42.018;23.986;2022-09-20T00:26:21;9.70;;;8.70;;
2213;SDS011;1113;42.018;23.986;2022-09-20T00:31:24;5.37;;;4.87;;
2213;SDS011;1113;42.018;23.986;2022-09-20T00:33:52;6.73;;;5.63;;
2213;SDS011;1113;42.018;23.986;2022-09-20T00:36:37;5.97;;;4.67;;
2213;SDS011;1113;42.018;23.986;2022-09-20T00:39:03;4.80;;;4.30;;
2213;SDS011;1113;42.018;23.986;2022-09-20T00:41:31;3.30;;;2.80;;
2213;SDS011;1113;42.018;23.986;2022-09-20T00:44:00;4.43;;;2.10;;
2213;SDS011;1113;42.018;23.986;2022-09-20T00:46:28;2.23;;;1.57;;
2213;SDS011;1113;42.018;23.986;2022-09-20T00:49:04;2.87;;;2.40;;
2213;SDS011;1113;42.018;23.986;2022-09-20T00:51:38;25.90;;;17.20;;
2213;SDS011;1113;42.018;23.986;2022-09-20T00:54:08;18.53;;;12.20;;
2213;SDS011;1113;42.018;23.986;2022-09-20T00:56:40;16.67;;;10.67;;
2213;SDS011;1113;42.018;23.986;2022-09-20T00:59:10;13.18;;;8.52;;
2213;SDS011;1113;42.018;23.986;2022-09-20T01:01:42;11.57;;;8.48;;
2213;SDS011;1113;42.018;23.986;2022-09-20T01:04:11;5.85;;;5.25;;
2213;SDS011;1113;42.018;23.986;2022-09-20T01:06:41;6.70;;;4.60;;
2213;SDS011;1113;42.018;23.986;2022-09-20T01:09:10;6.10;;;4.47;;
2213;SDS011;1113;42.018;23.986;2022-09-20T01:11:36;4.27;;;3.83;;
2213;SDS011;1113;42.018;23.986;2022-09-20T01:14:05;3.53;;;3.23;;
2213;SDS011;1113;42.018;23.986;2022-09-20T01:16:33;4.23;;;3.30;;
2213;SDS011;1113;42.018;23.986;2022-09-20T01:19:02;4.03;;;3.07;;
2213;SDS011;1113;42.018;23.986;2022-09-20T01:21:35;3.30;;;2.80;;
2213;SDS011;1113;42.018;23.986;2022-09-20T01:24:03;4.80;;;2.97;;
2213;SDS011;1113;42.018;23.986;2022-09-20T01:29:40;3.20;;;2.60;;
2213;SDS011;1113;42.018;23.986;2022-09-20T01:32:18;5.57;;;3.57;;
2213;SDS011;1113;42.018;23.986;2022-09-20T01:34:49;3.73;;;3.13;;
2213;SDS011;1113;42.018;23.986;2022-09-20T01:37:21;3.73;;;2.90;;
2213;SDS011;1113;42.018;23.986;2022-09-20T01:39:53;5.97;;;2.80;;
2213;SDS011;1113;42.018;23.986;2022-09-20T01:42:28;4.10;;;3.17;;
2213;SDS011;1113;42.018;23.986;2022-09-20T01:45:02;3.97;;;2.40;;
2213;SDS011;1113;42.018;23.986;2022-09-20T01:47:41;3.20;;;2.53;;
2213;SDS011;1113;42.018;23.986;2022-09-20T01:50:21;4.10;;;2.90;;
2213;SDS011;1113;42.018;23.986;2022-09-20T01:59:02;3.00;;;2.27;;
2213;SDS011;1113;42.018;23.986;2022-09-20T02:05:03;6.18;;;2.60;;
2213;SDS011;1113;42.018;23.986;2022-09-20T02:07:55;4.05;;;3.50;;
2213;SDS011;1113;42.018;23.986;2022-09-20T02:13:29;5.57;;;3.60;;
2213;SDS011;1113;42.018;23.986;2022-09-20T02:16:03;4.57;;;3.17;;
2213;SDS011;1113;42.018;23.986;2022-09-20T02:18:46;6.35;;;4.13;;
2213;SDS011;1113;42.018;23.986;2022-09-20T02:21:45;6.18;;;3.58;;
2213;SDS011;1113;42.018;23.986;2022-09-20T02:24:25;5.20;;;3.17;;
2213;SDS011;1113;42.018;23.986;2022-09-20T02:27:01;5.53;;;3.63;;
2213;SDS011;1113;42.018;23.986;2022-09-20T02:29:39;4.40;;;2.97;;
2213;SDS011;1113;42.018;23.986;2022-09-20T02:32:16;3.30;;;2.87;;
2213;SDS011;1113;42.018;23.986;2022-09-20T02:35:01;4.00;;;3.00;;
2213;SDS011;1113;42.018;23.986;2022-09-20T02:37:52;5.97;;;3.40;;
2213;SDS011;1113;42.018;23.986;2022-09-20T02:43:30;4.88;;;2.50;;
2213;SDS011;1113;42.018;23.986;2022-09-20T02:46:02;4.55;;;3.15;;
2213;SDS011;1113;42.018;23.986;2022-09-20T02:48:37;3.80;;;2.60;;
2213;SDS011;1113;42.018;23.986;2022-09-20T02:51:15;9.32;;;3.17;;
2213;SDS011;1113;42.018;23.986;2022-09-20T02:53:50;3.88;;;2.28;;
2213;SDS011;1113;42.018;23.986;2022-09-20T02:56:28;3.95;;;2.70;;
2213;SDS011;1113;42.018;23.986;2022-09-20T02:59:04;3.72;;;2.80;;
2213;SDS011;1113;42.018;23.986;2022-09-20T03:01:39;5.05;;;3.00;;
2213;SDS011;1113;42.018;23.986;2022-09-20T03:04:23;5.15;;;3.22;;
2213;SDS011;1113;42.018;23.986;2022-09-20T03:07:02;6.75;;;4.22;;
2213;SDS011;1113;42.018;23.986;2022-09-20T03:09:39;4.22;;;3.70;;
2213;SDS011;1113;42.018;23.986;2022-09-20T03:12:13;13.32;;;9.07;;
2213;SDS011;1113;42.018;23.986;2022-09-20T03:14:45;10.65;;;9.57;;
2213;SDS011;1113;42.018;23.986;2022-09-20T03:17:28;9.90;;;7.45;;
2213;SDS011;1113;42.018;23.986;2022-09-20T03:20:05;6.68;;;5.95;;
2213;SDS011;1113;42.018;23.986;2022-09-20T03:22:44;7.15;;;5.30;;
2213;SDS011;1113;42.018;23.986;2022-09-20T03:25:39;6.60;;;5.90;;
2213;SDS011;1113;42.018;23.986;2022-09-20T03:28:29;8.77;;;7.88;;
2213;SDS011;1113;42.018;23.986;2022-09-20T03:31:06;8.38;;;7.28;;
2213;SDS011;1113;42.018;23.986;2022-09-20T03:33:48;8.23;;;5.32;;
2213;SDS011;1113;42.018;23.986;2022-09-20T03:39:36;6.32;;;5.40;;
2213;SDS011;1113;42.018;23.986;2022-09-20T03:42:21;8.43;;;4.93;;
2213;SDS011;1113;42.018;23.986;2022-09-20T03:44:58;6.05;;;5.45;;
2213;SDS011;1113;42.018;23.986;2022-09-20T03:47:40;3.92;;;3.30;;
2213;SDS011;1113;42.018;23.986;2022-09-20T03:50:22;6.10;;;4.72;;
2213;SDS011;1113;42.018;23.986;2022-09-20T03:53:05;5.43;;;4.57;;
2213;SDS011;1113;42.018;23.986;2022-09-20T03:55:58;7.93;;;4.90;;
2213;SDS011;1113;42.018;23.986;2022-09-20T03:58:51;5.85;;;4.68;;
2213;SDS011;1113;42.018;23.986;2022-09-20T04:01:34;5.00;;;4.38;;
2213;SDS011;1113;42.018;23.986;2022-09-20T04:04:18;5.50;;;3.97;;
2213;SDS011;1113;42.018;23.986;2022-09-20T04:06:59;5.13;;;3.45;;
2213;SDS011;1113;42.018;23.986;2022-09-20T04:13:08;4.03;;;3.42;;
2213;SDS011;1113;42.018;23.986;2022-09-20T04:15:51;3.70;;;3.20;;
2213;SDS011;1113;42.018;23.986;2022-09-20T04:18:29;5.28;;;4.22;;
2213;SDS011;1113;42.018;23.986;2022-09-20T04:21:04;6.60;;;6.00;;
2213;SDS011;1113;42.018;23.986;2022-09-20T04:23:40;4.55;;;4.15;;
2213;SDS011;1113;42.018;23.986;2022-09-20T04:26:13;6.60;;;3.80;;
2213;SDS011;1113;42.018;23.986;2022-09-20T04:28:45;5.88;;;4.00;;
2213;SDS011;1113;42.018;23.986;2022-09-20T04:31:19;4.93;;;4.43;;
2213;SDS011;1113;42.018;23.986;2022-09-20T04:33:55;5.13;;;3.80;;
2213;SDS011;1113;42.018;23.986;2022-09-20T04:39:21;5.97;;;4.03;;
2213;SDS011;1113;42.018;23.986;2022-09-20T04:42:03;5.10;;;3.50;;
2213;SDS011;1113;42.018;23.986;2022-09-20T04:51:05;3.85;;;2.42;;
2213;SDS011;1113;42.018;23.986;2022-09-20T04:54:09;3.90;;;2.40;;
2213;SDS011;1113;42.018;23.986;2022-09-20T04:57:05;4.88;;;2.60;;
2213;SDS011;1113;42.018;23.986;2022-09-20T04:59:52;9.57;;;3.60;;
2213;SDS011;1113;42.018;23.986;2022-09-20T05:05:37;6.20;;;4.65;;
2213;SDS011;1113;42.018;23.986;2022-09-20T05:11:23;7.43;;;4.00;;
2213;SDS011;1113;42.018;23.986;2022-09-20T05:14:21;13.80;;;10.65;;
2213;SDS011;1113;42.018;23.986;2022-09-20T05:17:09;10.83;;;8.87;;
2213;SDS011;1113;42.018;23.986;2022-09-20T05:19:46;10.47;;;8.20;;
2213;SDS011;1113;42.018;23.986;2022-09-20T05:22:37;11.07;;;9.07;;
2213;SDS011;1113;42.018;23.986;2022-09-20T05:25:28;17.47;;;12.90;;
2213;SDS011;1113;42.018;23.986;2022-09-20T05:28:22;8.87;;;6.13;;
2213;SDS011;1113;42.018;23.986;2022-09-20T05:30:56;8.20;;;4.50;;
2213;SDS011;1113;42.018;23.986;2022-09-20T05:33:27;5.73;;;3.07;;
2213;SDS011;1113;42.018;23.986;2022-09-20T05:36:03;5.33;;;3.00;;
2213;SDS011;1113;42.018;23.986;2022-09-20T05:38:44;5.47;;;3.30;;
2213;SDS011;1113;42.018;23.986;2022-09-20T05:41:16;3.90;;;2.47;;
2213;SDS011;1113;42.018;23.986;2022-09-20T05:43:53;3.53;;;2.20;;
2213;SDS011;1113;42.018;23.986;2022-09-20T05:46:31;2.70;;;1.83;;
2213;SDS011;1113;42.018;23.986;2022-09-20T05:49:05;2.93;;;2.00;;
2213;SDS011;1113;42.018;23.986;2022-09-20T05:54:37;3.80;;;2.90;;
2213;SDS011;1113;42.018;23.986;2022-09-20T05:57:28;3.63;;;3.10;;
2213;SDS011;1113;42.018;23.986;2022-09-20T06:00:07;4.00;;;3.30;;
2213;SDS011;1113;42.018;23.986;2022-09-20T06:02:47;9.73;;;5.10;;
2213;SDS011;1113;42.018;23.986;2022-09-20T06:05:32;7.00;;;3.47;;
2213;SDS011;1113;42.018;23.986;2022-09-20T06:08:17;7.53;;;3.87;;
2213;SDS011;1113;42.018;23.986;2022-09-20T06:11:05;4.77;;;3.40;;
2213;SDS011;1113;42.018;23.986;2022-09-20T06:13:48;6.40;;;3.60;;
2213;SDS011;1113;42.018;23.986;2022-09-20T06:16:30;8.00;;;4.23;;
2213;SDS011;1113;42.018;23.986;2022-09-20T06:19:08;8.13;;;5.20;;
2213;SDS011;1113;42.018;23.986;2022-09-20T06:21:43;7.27;;;4.53;;
2213;SDS011;1113;42.018;23.986;2022-09-20T06:24:18;8.37;;;4.83;;
2213;SDS011;1113;42.018;23.986;2022-09-20T06:26:57;6.00;;;4.50;;
2213;SDS011;1113;42.018;23.986;2022-09-20T06:29:30;10.40;;;5.10;;
2213;SDS011;1113;42.018;23.986;2022-09-20T06:32:00;7.30;;;4.63;;
2213;SDS011;1113;42.018;23.986;2022-09-20T06:34:27;4.30;;;3.50;;
2213;SDS011;1113;42.018;23.986;2022-09-20T06:36:57;4.83;;;3.43;;
2213;SDS011;1113;42.018;23.986;2022-09-20T06:39:48;4.77;;;3.03;;
2213;SDS011;1113;42.018;23.986;2022-09-20T06:42:38;5.30;;;2.50;;
2213;SDS011;1113;42.018;23.986;2022-09-20T06:45:05;8.30;;;2.27;;
2213;SDS011;1113;42.018;23.986;2022-09-20T06:47:32;3.43;;;2.47;;
2213;SDS011;1113;42.018;23.986;2022-09-20T06:49:59;4.80;;;2.90;;
2213;SDS011;1113;42.018;23.986;2022-09-20T06:52:26;5.37;;;2.83;;
2213;SDS011;1113;42.018;23.986;2022-09-20T06:54:53;3.07;;;2.10;;
2213;SDS011;1113;42.018;23.986;2022-09-20T06:57:22;2.83;;;1.60;;
2213;SDS011;1113;42.018;23.986;2022-09-20T07:00:00;6.83;;;2.00;;
2213;SDS011;1113;42.018;23.986;2022-09-20T07:02:27;2.30;;;1.77;;
2213;SDS011;1113;42.018;23.986;2022-09-20T07:04:55;2.77;;;2.07;;
2213;SDS011;1113;42.018;23.986;2022-09-20T07:07:23;3.73;;;2.50;;
2213;SDS011;1113;42.018;23.986;2022-09-20T07:09:50;3.77;;;2.67;;
2213;SDS011;1113;42.018;23.986;2022-09-20T07:12:17;4.17;;;2.30;;
2213;SDS011;1113;42.018;23.986;2022-09-20T07:14:45;4.40;;;3.00;;
2213;SDS011;1113;42.018;23.986;2022-09-20T07:17:13;6.97;;;3.40;;
2213;SDS011;1113;42.018;23.986;2022-09-20T07:19:40;8.33;;;3.60;;
2213;SDS011;1113;42.018;23.986;2022-09-20T07:22:06;6.53;;;3.90;;
2213;SDS011;1113;42.018;23.986;2022-09-20T07:24:33;7.17;;;3.83;;
2213;SDS011;1113;42.018;23.986;2022-09-20T07:27:01;6.07;;;3.60;;
2213;SDS011;1113;42.018;23.986;2022-09-20T07:29:29;5.63;;;3.27;;
2213;SDS011;1113;42.018;23.986;2022-09-20T07:31:56;5.07;;;3.00;;
2213;SDS011;1113;42.018;23.986;2022-09-20T07:34:24;5.10;;;3.33;;
2213;SDS011;1113;42.018;23.986;2022-09-20T07:36:51;5.23;;;3.33;;
2213;SDS011;1113;42.018;23.986;2022-09-20T07:39:18;5.10;;;3.40;;
2213;SDS011;1113;42.018;23.986;2022-09-20T07:41:45;4.77;;;3.00;;
2213;SDS011;1113;42.018;23.986;2022-09-20T07:44:14;3.50;;;2.20;;
2213;SDS011;1113;42.018;23.986;2022-09-20T07:46:49;4.20;;;2.63;;
2213;SDS011;1113;42.018;23.986;2022-09-20T07:49:16;4.87;;;3.13;;
2213;SDS011;1113;42.018;23.986;2022-09-20T07:51:45;7.50;;;3.00;;
2213;SDS011;1113;42.018;23.986;2022-09-20T07:54:11;3.43;;;2.60;;
2213;SDS011;1113;42.018;23.986;2022-09-20T07:56:38;3.33;;;2.80;;
2213;SDS011;1113;42.018;23.986;2022-09-20T07:59:05;4.40;;;2.60;;
2213;SDS011;1113;42.018;23.986;2022-09-20T08:01:34;3.50;;;2.60;;
2213;SDS011;1113;42.018;23.986;2022-09-20T08:04:01;3.37;;;2.00;;
2213;SDS011;1113;42.018;23.986;2022-09-20T08:06:29;4.40;;;2.20;;
2213;SDS011;1113;42.018;23.986;2022-09-20T08:08:58;2.90;;;2.10;;
2213;SDS011;1113;42.018;23.986;2022-09-20T08:11:24;2.30;;;1.90;;
2213;SDS011;1113;42.018;23.986;2022-09-20T08:13:54;2.33;;;1.83;;
2213;SDS011;1113;42.018;23.986;2022-09-20T08:16:22;5.03;;;2.20;;
2213;SDS011;1113;42.018;23.986;2022-09-20T08:18:50;5.47;;;2.50;;
2213;SDS011;1113;42.018;23.986;2022-09-20T08:21:21;2.63;;;2.00;;
2213;SDS011;1113;42.018;23.986;2022-09-20T08:23:48;2.30;;;2.00;;
2213;SDS011;1113;42.018;23.986;2022-09-20T08:26:17;3.13;;;2.07;;
2213;SDS011;1113;42.018;23.986;2022-09-20T08:28:45;2.50;;;1.80;;
2213;SDS011;1113;42.018;23.986;2022-09-20T08:31:15;2.87;;;2.17;;
2213;SDS011;1113;42.018;23.986;2022-09-20T08:33:44;3.53;;;1.90;;
2213;SDS011;1113;42.018;23.986;2022-09-20T08:36:12;2.47;;;1.30;;
2213;SDS011;1113;42.018;23.986;2022-09-20T08:38:40;2.70;;;2.00;;
2213;SDS011;1113;42.018;23.986;2022-09-20T08:41:09;2.50;;;1.97;;
2213;SDS011;1113;42.018;23.986;2022-09-20T08:43:42;2.97;;;1.73;;
2213;SDS011;1113;42.018;23.986;2022-09-20T08:46:12;2.27;;;1.33;;
2213;SDS011;1113;42.018;23.986;2022-09-20T08:48:41;2.57;;;1.30;;
2213;SDS011;1113;42.018;23.986;2022-09-20T08:51:09;2.47;;;1.50;;
2213;SDS011;1113;42.018;23.986;2022-09-20T08:53:40;5.20;;;1.57;;
2213;SDS011;1113;42.018;23.986;2022-09-20T08:56:11;2.70;;;1.33;;
2213;SDS011;1113;42.018;23.986;2022-09-20T08:58:40;2.53;;;1.20;;
2213;SDS011;1113;42.018;23.986;2022-09-20T09:01:09;2.07;;;1.30;;
2213;SDS011;1113;42.018;23.986;2022-09-20T09:03:40;3.00;;;2.20;;
2213;SDS011;1113;42.018;23.986;2022-09-20T09:06:09;1.80;;;1.10;;
2213;SDS011;1113;42.018;23.986;2022-09-20T09:08:38;1.67;;;1.27;;
2213;SDS011;1113;42.018;23.986;2022-09-20T09:11:11;1.93;;;1.37;;
2213;SDS011;1113;42.018;23.986;2022-09-20T09:13:43;1.57;;;1.10;;
2213;SDS011;1113;42.018;23.986;2022-09-20T09:16:17;2.10;;;1.10;;
2213;SDS011;1113;42.018;23.986;2022-09-20T09:18:46;2.20;;;1.10;;
2213;SDS011;1113;42.018;23.986;2022-09-20T09:21:16;1.70;;;1.20;;
2213;SDS011;1113;42.018;23.986;2022-09-20T09:23:45;2.80;;;1.10;;
2213;SDS011;1113;42.018;23.986;2022-09-20T09:26:17;1.63;;;1.13;;
2213;SDS011;1113;42.018;23.986;2022-09-20T09:28:47;1.60;;;1.23;;
2213;SDS011;1113;42.018;23.986;2022-09-20T09:31:33;1.70;;;1.20;;
2213;SDS011;1113;42.018;23.986;2022-09-20T09:34:02;1.50;;;1.17;;
2213;SDS011;1113;42.018;23.986;2022-09-20T09:36:29;1.73;;;1.17;;
2213;SDS011;1113;42.018;23.986;2022-09-20T09:39:13;2.50;;;1.30;;
2213;SDS011;1113;42.018;23.986;2022-09-20T09:41:41;1.67;;;1.20;;
2213;SDS011;1113;42.018;23.986;2022-09-20T09:44:19;2.63;;;1.60;;
2213;SDS011;1113;42.018;23.986;2022-09-20T09:46:48;1.77;;;1.23;;
2213;SDS011;1113;42.018;23.986;2022-09-20T09:49:19;2.27;;;1.20;;
2213;SDS011;1113;42.018;23.986;2022-09-20T09:54:32;2.17;;;1.20;;
2213;SDS011;1113;42.018;23.986;2022-09-20T09:57:07;3.63;;;1.20;;
2213;SDS011;1113;42.018;23.986;2022-09-20T10:00:00;2.17;;;1.63;;
2213;SDS011;1113;42.018;23.986;2022-09-20T10:05:34;2.23;;;1.10;;
2213;SDS011;1113;42.018;23.986;2022-09-20T10:08:12;1.40;;;1.03;;
2213;SDS011;1113;42.018;23.986;2022-09-20T10:10:52;3.37;;;1.50;;
2213;SDS011;1113;42.018;23.986;2022-09-20T10:13:27;5.50;;;1.90;;
2213;SDS011;1113;42.018;23.986;2022-09-20T10:16:06;1.87;;;1.23;;
2213;SDS011;1113;42.018;23.986;2022-09-20T10:21:32;2.90;;;1.30;;
2213;SDS011;1113;42.018;23.986;2022-09-20T10:24:14;7.47;;;1.23;;
2213;SDS011;1113;42.018;23.986;2022-09-20T10:29:58;4.60;;;1.30;;
2213;SDS011;1113;42.018;23.986;2022-09-20T10:32:37;4.60;;;1.37;;
2213;SDS011;1113;42.018;23.986;2022-09-20T10:35:19;3.13;;;1.10;;
2213;SDS011;1113;42.018;23.986;2022-09-20T10:37:53;3.67;;;1.40;;
2213;SDS011;1113;42.018;23.986;2022-09-20T10:40:43;1.83;;;1.10;;
2213;SDS011;1113;42.018;23.986;2022-09-20T10:43:40;2.10;;;1.40;;
2213;SDS011;1113;42.018;23.986;2022-09-20T10:46:24;2.30;;;1.10;;
2213;SDS011;1113;42.018;23.986;2022-09-20T10:49:08;2.30;;;1.00;;
2213;SDS011;1113;42.018;23.986;2022-09-20T10:51:50;2.27;;;1.10;;
2213;SDS011;1113;42.018;23.986;2022-09-20T10:54:28;2.07;;;1.10;;
2213;SDS011;1113;42.018;23.986;2022-09-20T10:57:10;2.27;;;1.10;;
2213;SDS011;1113;42.018;23.986;2022-09-20T10:59:53;1.60;;;1.10;;
2213;SDS011;1113;42.018;23.986;2022-09-20T11:02:35;2.17;;;1.20;;
2213;SDS011;1113;42.018;23.986;2022-09-20T11:05:21;1.77;;;1.10;;
2213;SDS011;1113;42.018;23.986;2022-09-20T11:08:02;2.07;;;1.30;;
2213;SDS011;1113;42.018;23.986;2022-09-20T11:10:36;1.83;;;1.07;;
2213;SDS011;1113;42.018;23.986;2022-09-20T11:13:10;1.50;;;1.00;;
2213;SDS011;1113;42.018;23.986;2022-09-20T11:15:48;1.33;;;0.87;;
2213;SDS011;1113;42.018;23.986;2022-09-20T11:18:24;1.70;;;1.40;;
2213;SDS011;1113;42.018;23.986;2022-09-20T11:20:59;2.80;;;1.20;;
2213;SDS011;1113;42.018;23.986;2022-09-20T11:23:35;1.97;;;1.20;;
2213;SDS011;1113;42.018;23.986;2022-09-20T11:26:12;3.30;;;1.10;;
2213;SDS011;1113;42.018;23.986;2022-09-20T11:28:44;2.33;;;1.10;;
2213;SDS011;1113;42.018;23.986;2022-09-20T11:31:16;1.70;;;1.20;;
2213;SDS011;1113;42.018;23.986;2022-09-20T11:33:47;2.90;;;1.10;;
2213;SDS011;1113;42.018;23.986;2022-09-20T11:36:20;2.30;;;1.70;;
2213;SDS011;1113;42.018;23.986;2022-09-20T11:38:52;2.00;;;1.30;;
2213;SDS011;1113;42.018;23.986;2022-09-20T11:41:23;2.63;;;1.67;;
2213;SDS011;1113;42.018;23.986;2022-09-20T11:43:53;1.47;;;1.10;;
2213;SDS011;1113;42.018;23.986;2022-09-20T11:46:22;1.90;;;1.50;;
2213;SDS011;1113;42.018;23.986;2022-09-20T11:48:56;2.10;;;1.40;;
2213;SDS011;1113;42.018;23.986;2022-09-20T11:51:31;2.70;;;1.30;;
2213;SDS011;1113;42.018;23.986;2022-09-20T11:54:29;1.53;;;1.03;;
2213;SDS011;1113;42.018;23.986;2022-09-20T11:57:19;1.50;;;1.10;;
2213;SDS011;1113;42.018;23.986;2022-09-20T11:59:49;1.53;;;1.10;;
2213;SDS011;1113;42.018;23.986;2022-09-20T12:02:19;1.50;;;1.00;;
2213;SDS011;1113;42.018;23.986;2022-09-20T12:04:49;1.90;;;1.23;;
2213;SDS011;1113;42.018;23.986;2022-09-20T12:07:20;2.10;;;1.40;;
2213;SDS011;1113;42.018;23.986;2022-09-20T12:09:51;2.47;;;1.20;;
2213;SDS011;1113;42.018;23.986;2022-09-20T12:12:27;2.40;;;1.40;;
2213;SDS011;1113;42.018;23.986;2022-09-20T12:15:04;3.00;;;1.83;;
2213;SDS011;1113;42.018;23.986;2022-09-20T12:26:35;1.70;;;1.10;;
2213;SDS011;1113;42.018;23.986;2022-09-20T12:29:09;2.10;;;1.40;;
2213;SDS011;1113;42.018;23.986;2022-09-20T12:38:33;1.73;;;1.10;;
2213;SDS011;1113;42.018;23.986;2022-09-20T12:41:06;3.07;;;1.10;;
2213;SDS011;1113;42.018;23.986;2022-09-20T12:43:46;1.70;;;1.17;;
2213;SDS011;1113;42.018;23.986;2022-09-20T12:46:21;2.50;;;1.20;;
2213;SDS011;1113;42.018;23.986;2022-09-20T12:52:00;2.20;;;1.33;;
2213;SDS011;1113;42.018;23.986;2022-09-20T12:54:49;3.60;;;1.10;;
2213;SDS011;1113;42.018;23.986;2022-09-20T12:57:23;2.80;;;1.37;;
2213;SDS011;1113;42.018;23.986;2022-09-20T12:59:56;2.30;;;1.60;;
2213;SDS011;1113;42.018;23.986;2022-09-20T13:02:41;2.47;;;1.17;;
2213;SDS011;1113;42.018;23.986;2022-09-20T13:08:04;1.40;;;0.80;;
2213;SDS011;1113;42.018;23.986;2022-09-20T13:10:39;3.23;;;1.40;;
2213;SDS011;1113;42.018;23.986;2022-09-20T13:13:16;1.90;;;1.20;;
2213;SDS011;1113;42.018;23.986;2022-09-20T13:15:59;3.87;;;2.73;;
2213;SDS011;1113;42.018;23.986;2022-09-20T13:18:29;4.27;;;3.70;;
2213;SDS011;1113;42.018;23.986;2022-09-20T13:20:57;3.13;;;2.00;;
2213;SDS011;1113;42.018;23.986;2022-09-20T13:23:27;2.60;;;1.10;;
2213;SDS011;1113;42.018;23.986;2022-09-20T13:25:58;1.50;;;1.10;;
2213;SDS011;1113;42.018;23.986;2022-09-20T13:28:33;2.17;;;1.10;;
2213;SDS011;1113;42.018;23.986;2022-09-20T13:33:58;1.93;;;1.30;;
2213;SDS011;1113;42.018;23.986;2022-09-20T13:36:38;3.13;;;1.33;;
2213;SDS011;1113;42.018;23.986;2022-09-20T13:39:06;4.53;;;1.60;;
2213;SDS011;1113;42.018;23.986;2022-09-20T13:41:33;2.93;;;1.20;;
2213;SDS011;1113;42.018;23.986;2022-09-20T13:44:01;1.77;;;1.10;;
2213;SDS011;1113;42.018;23.986;2022-09-20T13:46:30;2.37;;;1.20;;
2213;SDS011;1113;42.018;23.986;2022-09-20T13:49:06;2.13;;;1.27;;
2213;SDS011;1113;42.018;23.986;2022-09-20T13:51:39;3.10;;;1.93;;
2213;SDS011;1113;42.018;23.986;2022-09-20T13:54:16;1.90;;;1.33;;
2213;SDS011;1113;42.018;23.986;2022-09-20T13:56:45;2.37;;;1.60;;
2213;SDS011;1113;42.018;23.986;2022-09-20T13:59:14;2.07;;;1.57;;
2213;SDS011;1113;42.018;23.986;2022-09-20T14:01:43;3.00;;;1.40;;
2213;SDS011;1113;42.018;23.986;2022-09-20T14:04:15;3.03;;;1.40;;
2213;SDS011;1113;42.018;23.986;2022-09-20T14:06:44;2.03;;;1.20;;
2213;SDS011;1113;42.018;23.986;2022-09-20T14:09:15;2.50;;;1.40;;
2213;SDS011;1113;42.018;23.986;2022-09-20T14:11:47;1.90;;;1.50;;
2213;SDS011;1113;42.018;23.986;2022-09-20T14:14:16;2.20;;;1.63;;
2213;SDS011;1113;42.018;23.986;2022-09-20T14:16:45;3.10;;;1.87;;
2213;SDS011;1113;42.018;23.986;2022-09-20T14:19:14;2.80;;;1.50;;
2213;SDS011;1113;42.018;23.986;2022-09-20T14:21:42;3.60;;;1.60;;
2213;SDS011;1113;42.018;23.986;2022-09-20T14:24:23;2.20;;;1.33;;
2213;SDS011;1113;42.018;23.986;2022-09-20T14:27:13;2.23;;;1.50;;
2213;SDS011;1113;42.018;23.986;2022-09-20T14:29:43;2.60;;;1.60;;
2213;SDS011;1113;42.018;23.986;2022-09-20T14:32:18;3.40;;;1.77;;
2213;SDS011;1113;42.018;23.986;2022-09-20T14:34:58;3.47;;;1.27;;
2213;SDS011;1113;42.018;23.986;2022-09-20T14:37:29;3.60;;;2.47;;
2213;SDS011;1113;42.018;23.986;2022-09-20T14:39:59;4.20;;;2.40;;
2213;SDS011;1113;42.018;23.986;2022-09-20T14:42:29;6.87;;;2.03;;
2213;SDS011;1113;42.018;23.986;2022-09-20T14:45:00;2.10;;;1.40;;
2213;SDS011;1113;42.018;23.986;2022-09-20T14:47:34;3.83;;;2.50;;
2213;SDS011;1113;42.018;23.986;2022-09-20T14:50:03;2.70;;;1.70;;
2213;SDS011;1113;42.018;23.986;2022-09-20T14:52:38;3.90;;;2.33;;
2213;SDS011;1113;42.018;23.986;2022-09-20T14:57:57;3.10;;;2.10;;
2213;SDS011;1113;42.018;23.986;2022-09-20T15:00:27;2.93;;;2.00;;
2213;SDS011;1113;42.018;23.986;2022-09-20T15:03:00;2.60;;;1.70;;
2213;SDS011;1113;42.018;23.986;2022-09-20T15:05:30;2.00;;;1.53;;
2213;SDS011;1113;42.018;23.986;2022-09-20T15:07:58;2.53;;;2.10;;
2213;SDS011;1113;42.018;23.986;2022-09-20T15:13:30;3.20;;;2.23;;
2213;SDS011;1113;42.018;23.986;2022-09-20T15:15:58;2.90;;;2.20;;
2213;SDS011;1113;42.018;23.986;2022-09-20T15:18:26;4.10;;;2.40;;
2213;SDS011;1113;42.018;23.986;2022-09-20T15:20:58;2.80;;;2.17;;
2213;SDS011;1113;42.018;23.986;2022-09-20T15:23:25;3.53;;;2.27;;
2213;SDS011;1113;42.018;23.986;2022-09-20T15:25:53;3.20;;;2.30;;
2213;SDS011;1113;42.018;23.986;2022-09-20T15:28:20;3.63;;;2.00;;
2213;SDS011;1113;42.018;23.986;2022-09-20T15:30:48;2.93;;;2.33;;
2213;SDS011;1113;42.018;23.986;2022-09-20T15:33:18;3.10;;;2.00;;
2213;SDS011;1113;42.018;23.986;2022-09-20T15:35:46;2.30;;;1.70;;
2213;SDS011;1113;42.018;23.986;2022-09-20T15:38:15;4.17;;;1.90;;
2213;SDS011;1113;42.018;23.986;2022-09-20T15:40:43;2.70;;;2.00;;
2213;SDS011;1113;42.018;23.986;2022-09-20T15:43:12;3.30;;;2.17;;
2213;SDS011;1113;42.018;23.986;2022-09-20T15:45:45;3.73;;;2.30;;
2213;SDS011;1113;42.018;23.986;2022-09-20T15:48:14;3.93;;;3.53;;
2213;SDS011;1113;42.018;23.986;2022-09-20T15:50:48;4.87;;;4.13;;
2213;SDS011;1113;42.018;23.986;2022-09-20T15:53:26;4.77;;;4.23;;
2213;SDS011;1113;42.018;23.986;2022-09-20T15:55:55;3.93;;;3.47;;
2213;SDS011;1113;42.018;23.986;2022-09-20T15:58:26;5.33;;;4.70;;
2213;SDS011;1113;42.018;23.986;2022-09-20T16:01:00;4.57;;;3.73;;
2213;SDS011;1113;42.018;23.986;2022-09-20T16:03:29;6.30;;;3.93;;
2213;SDS011;1113;42.018;23.986;2022-09-20T16:05:58;4.00;;;3.30;;
2213;SDS011;1113;42.018;23.986;2022-09-20T16:08:26;6.60;;;3.70;;
2213;SDS011;1113;42.018;23.986;2022-09-20T16:10:56;4.57;;;4.07;;
2213;SDS011;1113;42.018;23.986;2022-09-20T16:13:23;4.90;;;3.50;;
2213;SDS011;1113;42.018;23.986;2022-09-20T16:15:53;5.07;;;4.19;;
2213;SDS011;1113;42.018;23.986;2022-09-20T16:18:20;9.43;;;5.47;;
2213;SDS011;1113;42.018;23.986;2022-09-20T16:21:06;8.70;;;6.30;;
2213;SDS011;1113;42.018;23.986;2022-09-20T16:23:36;11.10;;;5.07;;
2213;SDS011;1113;42.018;23.986;2022-09-20T16:26:03;6.63;;;5.40;;
2213;SDS011;1113;42.018;23.986;2022-09-20T16:28:30;6.37;;;4.60;;
2213;SDS011;1113;42.018;23.986;2022-09-20T16:30:57;6.43;;;4.00;;
2213;SDS011;1113;42.018;23.986;2022-09-20T16:33:25;5.40;;;4.13;;
2213;SDS011;1113;42.018;23.986;2022-09-20T16:35:51;5.17;;;3.83;;
2213;SDS011;1113;42.018;23.986;2022-09-20T16:38:20;7.73;;;4.70;;
2213;SDS011;1113;42.018;23.986;2022-09-20T16:40:47;5.33;;;3.90;;
2213;SDS011;1113;42.018;23.986;2022-09-20T16:43:15;6.97;;;3.67;;
2213;SDS011;1113;42.018;23.986;2022-09-20T16:45:46;4.80;;;3.80;;
2213;SDS011;1113;42.018;23.986;2022-09-20T16:48:13;6.30;;;4.20;;
2213;SDS011;1113;42.018;23.986;2022-09-20T16:50:40;12.90;;;4.50;;
2213;SDS011;1113;42.018;23.986;2022-09-20T16:53:07;13.33;;;5.33;;
2213;SDS011;1113;42.018;23.986;2022-09-20T16:55:35;7.50;;;4.87;;
2213;SDS011;1113;42.018;23.986;2022-09-20T16:58:02;12.03;;;5.20;;
2213;SDS011;1113;42.018;23.986;2022-09-20T17:00:33;6.80;;;4.67;;
2213;SDS011;1113;42.018;23.986;2022-09-20T17:02:59;7.43;;;5.40;;
2213;SDS011;1113;42.018;23.986;2022-09-20T17:05:26;5.20;;;4.20;;
2213;SDS011;1113;42.018;23.986;2022-09-20T17:07:53;4.80;;;4.30;;
2213;SDS011;1113;42.018;23.986;2022-09-20T17:10:20;6.70;;;4.17;;